Language selection

My Weather Profile Weather Topics  | 

Northumberland Strait: Past 24 Hour Conditions

 

Lake Nipissing - 45152

04:00 PM EDT 23 September 2021Buoy position: 46.23N 79.72W
Disclaimer

This table is a summary of hourly weather conditions for the past 24 hours.
Please note that these observations might not always be representative of weather conditions over their associated marine area.

Date / Time
(EDT)
Wind(knots) Wave height(m) Wave period(s) Pressure(kPa) Air tempC) Water tempC)
23 September 2021
16:00 E 10 gust 12 0.4 3.0 100.9 13 17
15:00 E 16 gust 17 0.4 3.0 100.9 12 17
14:00 ENE 13 gust 16 0.5 3.0 101.0 11 17
13:00 E 10 gust 13 0.4 3.0 101.0 12 17
12:00 ENE 12 gust 17 0.5 3.0 101.0 11 17
11:00 ENE 19 gust 23 0.6 3.0 101.1 11 17
10:00 ENE 17 gust 23 0.5 3.0 101.1 11 17
9:00 ENE 17 gust 22 0.5 3.0 101.2 10 18
8:00 ENE 16 gust 22 0.5 3.0 101.3 10 18
7:00 NE 17 gust 22 0.6 3.0 101.2 10 18
6:00 ENE 19 gust 23 0.7 4.0 101.3 10 18
5:00 ENE 22 gust 25 0.7 3.0 101.2 10 18
4:00 ENE 19 gust 25 0.6 4.0 101.3 10 18
3:00 NE 22 gust 25 0.7 4.0 101.4 10 18
2:00 NE 23 gust 27 0.7 3.0 101.5 10 18
1:00 ENE 22 gust 27 0.7 4.0 101.6 10 18
0:00 NE 22 gust 27 0.6 3.0 101.7 10 18
22 September 2021
23:00 NE 19 gust 25 0.6 3.0 101.8 10 18
22:00 NE 22 gust 25 0.6 4.0 101.8 10 18
21:00 NE 22 gust 27 0.6 3.0 101.8 10 18
20:00 NE 22 gust 25 0.7 4.0 101.8 10 18
19:00 NNE 22 gust 27 0.6 4.0 101.8 11 18
18:00 NE 23 gust 27 0.6 3.0 101.8 11 18
17:00 NNE 19 gust 25 0.5 3.0 101.8 10 18
16:00 NE 22 gust 25 0.5 3.0 101.8 11 18

Zoom-in to make a selection

Map of St. Lawrence - St. Lawrence River marine weather areas West Bay of Fundy - 44490 Mont-Louis - 45138 Lake Nipissing - 45152 North Bay Airport Beauport Deschambault Île d'Orléans L'Assomption Trois-Rivières Airport Île aux-Grues Lac Saint-Pierre Montréal-Trudeau Int'l Airport Saint-Hubert Airport Lac Memphrémagog Sainte-Anne-de-Bellevue Saint-Anicet Baie-Comeau Airport Cap-Rouge Île Rouge Pointe de l'Islet Pointe Claveau Sept-Îles Airport Pointe-des-Monts Pointe-Noire Cap-d'Espoir Rivière-la-Madeleine Gaspé Airport La Pocatière Mont-Joli Airport New Carlisle Pointe-au-Père Port Menier Île Bicquette Cap-Chat CFB Bagotville Jonquière Mistook Normandin Roberval Airport Bas Caraquet Bathurst Airport Bouctouche AAFC Charlo Miramichi Fundy Park (Alma) Grand Manan Kouchibouguac Miscou Island Greater Moncton Roméo LeBlanc Int'l Airport Point Lepreau Saint John Airport St. Stephen Brier Island Yarmouth Airport North Cape
Legend:
buoy Buoy
land station Land Station

St. Lawrence - St. Lawrence River Area

Another Region

What we are doing

Date modified: